Have a Safe July 4th! 

Flight Track Log - Related Links

Times and Time Zones

All times are in EDT time to prevent confusion due to time zone crossing. See the AZA621 flight status page for this flight to view local times or setup timezone preferences in your user account.

Time Position Orientation Groundspeed Altitude Reporting Facility
EDT Latitude Longitude Course Direction KTS MPH feet Rate Location/Type
Sun 08:55:25 PM 33.9470 -118.4380 263° West 175 201 800  Level FlightAware ADS-B
Sun 08:55:48 PM 33.9450 -118.4600 264° West 173 199 2,000 2,667 Climbing FlightAware ADS-B
Sun 08:56:01 PM 33.9440 -118.4730 265° West 169 194 2,400 1,543 Climbing FlightAware ADS-B
Sun 08:56:23 PM 33.9400 -118.4920 256° West 183 211 2,900 1,527 Climbing FlightAware ADS-B
Sun 08:56:56 PM 33.9210 -118.5180 229° Southwest 201 231 3,800 1,469 Climbing FlightAware ADS-B
Sun 08:57:12 PM 33.9050 -118.5250 200° South 220 253 4,100 900 Climbing FlightAware ADS-B
Sun 08:57:36 PM 33.8780 -118.5310 190° South 246 283 4,400 982 Climbing FlightAware ADS-B
Sun 08:58:07 PM 33.8420 -118.5390 190° South 275 316 5,000 1,552 Climbing FlightAware ADS-B
Sun 08:58:34 PM 33.8070 -118.5490 193° South 281 323 5,900 2,069 Climbing FlightAware ADS-B
Sun 08:59:05 PM 33.7680 -118.5580 191° South 288 331 7,000 2,211 Climbing FlightAware ADS-B
Sun 08:59:31 PM 33.7340 -118.5490 168° South 292 336 8,000 2,421 Climbing FlightAware ADS-B
Sun 09:00:02 PM 33.6940 -118.5340 163° South 292 336 9,300 2,488 Climbing FlightAware ADS-B
Sun 09:00:12 PM 33.6820 -118.5240 145° Southeast 294 338 9,700 1,636 Climbing FlightAware ADS-B
Sun 09:00:24 PM 33.6730 -118.5100 128° Southeast 301 346 9,900 818 Climbing FlightAware ADS-B
Sun 09:00:34 PM 33.6670 -118.4950 116° Southeast 311 358 10,000 1,320 Climbing FlightAware ADS-B
Sun 09:01:14 PM 33.6540 -118.4260 103° East 330 380 11,000 1,902 Climbing FlightAware ADS-B
Sun 09:01:56 PM 33.6410 -118.3460 101° East 339 390 12,600 2,143 Climbing FlightAware ADS-B
Sun 09:02:24 PM 33.6520 -118.2940 76° East 348 400 13,500 1,917 Climbing FlightAware ADS-B
Sun 09:03:08 PM 33.6910 -118.2220 57° Northeast 356 410 14,900 1,841 Climbing FlightAware ADS-B
Sun 09:03:52 PM 33.7320 -118.1490 56° Northeast 364 419 16,200 1,674 Climbing FlightAware ADS-B
Sun 09:04:34 PM 33.7720 -118.0770 56° Northeast 379 436 17,300 1,244 Climbing FlightAware ADS-B
Sun 09:05:14 PM 33.8250 -118.0180 43° Northeast 403 464 17,900 1,214 Climbing FlightAware ADS-B
Sun 09:05:58 PM 33.8910 -117.9570 37° Northeast 410 472 19,000 1,429 Climbing FlightAware ADS-B
Sun 09:06:38 PM 33.9530 -117.9010 37° Northeast 419 482 19,900 1,357 Climbing FlightAware ADS-B
Sun 09:07:22 PM 34.0210 -117.8400 37° Northeast 426 490 20,900 1,286 Climbing FlightAware ADS-B
Sun 09:08:02 PM 34.0850 -117.7790 38° Northeast 432 497 21,700 1,200 Climbing FlightAware ADS-B
Sun 09:08:42 PM 34.1380 -117.7120 46° Northeast 437 503 22,500 1,214 Climbing FlightAware ADS-B
Sun 09:09:26 PM 34.1990 -117.6300 48° Northeast 444 511 23,400 1,200 Climbing FlightAware ADS-B
Sun 09:10:02 PM 34.2490 -117.5610 49° Northeast 451 519 24,100 1,105 Climbing FlightAware ADS-B
Sun 09:10:42 PM 34.3030 -117.4870 49° Northeast 456 525 24,800 1,043 Climbing FlightAware ADS-B
Sun 09:11:34 PM 34.3770 -117.3860 48° Northeast 466 536 25,700 1,055 Climbing FlightAware ADS-B
Sun 09:12:13 PM 34.4320 -117.3110 48° Northeast 471 542 26,400 1,105 Climbing FlightAware ADS-B
Sun 09:12:50 PM 34.4860 -117.2370 48° Northeast 474 545 27,100 1,050 Climbing FlightAware ADS-B
Sun 09:13:33 PM 34.5500 -117.1490 49° Northeast 480 552 27,800 1,012 Climbing FlightAware ADS-B
Sun 09:14:13 PM 34.6100 -117.0670 48° Northeast 485 558 28,500 1,077 Climbing FlightAware ADS-B
Sun 09:14:51 PM 34.6650 -116.9920 48° Northeast 488 562 29,200 483 Climbing FlightAware ADS-B
Sun 09:15:40 PM 34.7280 -116.9060 48° Northeast 488 562 29,200 897 Level FlightAware ADS-B
Sun 09:16:18 PM 34.7970 -116.8090 49° Northeast 501 577 30,500 1,301 Climbing FlightAware ADS-B
Sun 09:17:03 PM 34.8670 -116.7110 49° Northeast 508 585 31,000 706 Climbing FlightAware ADS-B
Sun 09:17:43 PM 34.9280 -116.6260 49° Northeast 512 589 31,500 750 Climbing FlightAware ADS-B
Sun 09:18:23 PM 34.9920 -116.5420 47° Northeast 517 595 32,000 607 Climbing FlightAware ADS-B
Sun 09:19:12 PM 35.0680 -116.4470 46° Northeast 516 594 32,400 247 Climbing FlightAware ADS-B
Sun 09:20:00 PM 35.1370 -116.3630 45° Northeast 516 594 32,400  Level FlightAware ADS-B
Sun 09:20:37 PM 35.1900 -116.2980 45° Northeast 516 594 32,400 2,000 Level FlightAware ADS-B
Sun 09:21:18 PM 35.2790 -116.1820 47° Northeast 497 572 35,000 1,793 Climbing FlightAware ADS-B
Sun 09:22:04 PM 35.3500 -116.0930 46° Northeast 502 578 35,000  Level FlightAware ADS-B
Sun 09:22:43 PM 35.4160 -116.0100 46° Northeast 499 574 35,000  Level FlightAware ADS-B
Sun 09:23:23 PM 35.4800 -115.9280 46° Northeast 500 575 35,000  Level FlightAware ADS-B
Sun 09:24:03 PM 35.5440 -115.8480 45° Northeast 500 575 35,000  Level FlightAware ADS-B
Sun 09:24:43 PM 35.6090 -115.7650 46° Northeast 501 577 35,000  Level FlightAware ADS-B
Sun 09:25:41 PM 35.6890 -115.6630 46° Northeast 500 575 35,000  Level FlightAware ADS-B
Sun 09:26:44 PM 35.8020 -115.5180 46° Northeast 500 575 35,000  Level FlightAware ADS-B
Sun 09:27:24 PM 35.8670 -115.4350 46° Northeast 501 577 35,000  Level FlightAware ADS-B
Sun 09:28:08 PM 35.9370 -115.3440 46° Northeast 500 575 35,000  Level FlightAware ADS-B
Sun 09:28:48 PM 35.9990 -115.2640 46° Northeast 497 572 35,000  Level FlightAware ADS-B
Sun 09:29:32 PM 36.0700 -115.1720 46° Northeast 498 573 35,000  Level FlightAware ADS-B
Sun 09:30:12 PM 36.1350 -115.0890 46° Northeast 498 573 35,000  Level FlightAware ADS-B
Sun 09:30:48 PM 36.1930 -115.0160 45° Northeast 500 575 35,000  Level FlightAware ADS-B
Sun 09:31:30 PM 36.2610 -114.9310 45° Northeast 502 578 35,000  Level FlightAware ADS-B
Sun 09:32:14 PM 36.3320 -114.8400 46° Northeast 502 578 35,000  Level FlightAware ADS-B
Sun 09:32:46 PM 36.3840 -114.7730 46° Northeast 504 580 35,000  Level FlightAware ADS-B
Sun 09:33:32 PM 36.4560 -114.6800 46° Northeast 504 580 35,000  Level FlightAware ADS-B
Sun 09:34:12 PM 36.5210 -114.5940 47° Northeast 505 581 35,000  Level FlightAware ADS-B
Sun 09:34:41 PM 36.5690 -114.5310 46° Northeast 507 583 35,000  Level FlightAware ADS-B
Sun 09:35:22 PM 36.6340 -114.4460 46° Northeast 506 582 35,000  Level FlightAware ADS-B
Sun 09:36:06 PM 36.7030 -114.3560 46° Northeast 507 583 35,000  Level FlightAware ADS-B
Sun 09:36:46 PM 36.7740 -114.2730 43° Northeast 509 586 35,000  Level FlightAware ADS-B
Sun 09:37:26 PM 36.8520 -114.2090 33° Northeast 510 587 35,000  Level FlightAware ADS-B
Sun 09:38:10 PM 36.9390 -114.1420 32° Northeast 511 588 35,000  Level FlightAware ADS-B
Sun 09:38:53 PM 37.0270 -114.0740 32° Northeast 511 588 35,000  Level FlightAware ADS-B
Sun 09:39:26 PM 37.0940 -114.0210 32° Northeast 511 588 35,000  Level FlightAware ADS-B
Sun 09:40:04 PM 37.1690 -113.9640 31° Northeast 509 586 35,000  Level FlightAware ADS-B
Sun 09:40:50 PM 37.2630 -113.8900 32° Northeast 510 587 35,000  Level FlightAware ADS-B
Sun 09:41:49 PM 37.3680 -113.8070 32° Northeast 509 586 35,000  Level FlightAware ADS-B
Sun 09:42:25 PM 37.4290 -113.7590 32° Northeast 509 586 35,000  Level FlightAware ADS-B
Sun 09:43:13 PM 37.5110 -113.6950 32° Northeast 509 586 35,000  Level FlightAware ADS-B
Sun 09:43:49 PM 37.5720 -113.6470 32° Northeast 509 586 35,000  Level FlightAware ADS-B
Sun 09:44:38 PM 37.6550 -113.5810 32° Northeast 509 586 35,000  Level FlightAware ADS-B
Sun 09:45:12 PM 37.7130 -113.5360 32° Northeast 509 586 35,000  Level FlightAware ADS-B
Sun 09:46:00 PM 37.7940 -113.4710 32° Northeast 509 586 35,000  Level FlightAware ADS-B
Sun 09:46:36 PM 37.8550 -113.4230 32° Northeast 509 586 35,000  Level FlightAware ADS-B
Sun 09:47:12 PM 37.9160 -113.3750 32° Northeast 509 586 35,000  Level FlightAware ADS-B
Sun 09:48:00 PM 37.9980 -113.3100 32° Northeast 509 586 35,000  Level FlightAware ADS-B
Sun 09:48:36 PM 38.0590 -113.2620 32° Northeast 509 586 35,000  Level FlightAware ADS-B
Sun 09:49:12 PM 38.1200 -113.2130 32° Northeast 509 586 35,000  Level FlightAware ADS-B
Sun 09:50:01 PM 38.2030 -113.1470 32° Northeast 509 586 35,000  Level FlightAware ADS-B
Sun 09:50:49 PM 38.2850 -113.0820 32° Northeast 509 586 35,000  Level FlightAware ADS-B
Sun 09:50:59 PM 38.4703 -112.8860 40° Northeast 518 596 35,000  Level FlightAware ADS-B
Sun 09:51:50 PM 38.5594 -112.7820 42° Northeast 517 595 35,000  Level FlightAware ADS-B
Sun 09:52:20 PM 38.6125 -112.7200 42° Northeast 516 594 35,000  Level FlightAware ADS-B
Sun 09:52:52 PM 38.6681 -112.6550 42° Northeast 517 595 35,000  Level FlightAware ADS-B
Sun 09:53:40 PM 38.7523 -112.5560 43° Northeast 517 595 35,000  Level FlightAware ADS-B
Sun 09:54:10 PM 38.8052 -112.4940 42° Northeast 517 595 35,000  Level FlightAware ADS-B
Sun 09:54:59 PM 38.8922 -112.3910 43° Northeast 517 595 35,000  Level FlightAware ADS-B
Sun 09:55:30 PM 38.9465 -112.3270 43° Northeast 518 596 35,000  Level FlightAware ADS-B
Sun 09:56:02 PM 39.0022 -112.2610 43° Northeast 518 596 35,000  Level FlightAware ADS-B
Sun 09:56:32 PM 39.0556 -112.1980 42° Northeast 518 596 35,000  Level FlightAware ADS-B
Sun 09:57:02 PM 39.1088 -112.1340 43° Northeast 519 597 35,000  Level FlightAware ADS-B
Sun 09:57:49 PM 39.1907 -112.0360 43° Northeast 519 597 35,000  Level FlightAware ADS-B
Sun 09:58:19 PM 39.2439 -111.9730 43° Northeast 519 597 35,000  Level FlightAware ADS-B
Sun 09:58:50 PM 39.2983 -111.9080 43° Northeast 519 597 35,000  Level FlightAware ADS-B
Sun 09:59:21 PM 39.3527 -111.8420 43° Northeast 520 598 35,000  Level FlightAware ADS-B
Sun 09:59:52 PM 39.4057 -111.7780 43° Northeast 519 597 35,000  Level FlightAware ADS-B
Sun 10:00:25 PM 39.4644 -111.7080 43° Northeast 518 596 35,000  Level FlightAware ADS-B
Sun 10:00:55 PM 39.5173 -111.6430 43° Northeast 519 597 35,000  Level FlightAware ADS-B
Sun 10:01:27 PM 39.5728 -111.5760 43° Northeast 518 596 35,000  Level FlightAware ADS-B
Sun 10:01:57 PM 39.6250 -111.5120 43° Northeast 517 595 35,000  Level FlightAware ADS-B
Sun 10:02:28 PM 39.6788 -111.4470 43° Northeast 517 595 35,000  Level FlightAware ADS-B
Sun 10:02:59 PM 39.7327 -111.3810 43° Northeast 517 595 35,000  Level FlightAware ADS-B
Sun 10:03:29 PM 39.7848 -111.3170 43° Northeast 516 594 35,000  Level FlightAware ADS-B
Sun 10:03:59 PM 39.8369 -111.2530 43° Northeast 517 595 35,000  Level FlightAware ADS-B
Sun 10:04:30 PM 39.8903 -111.1880 43° Northeast 518 596 35,000  Level FlightAware ADS-B
Sun 10:05:00 PM 39.9439 -111.1220 43° Northeast 518 596 35,000  Level FlightAware ADS-B
Sun 10:05:31 PM 39.9972 -111.0560 43° Northeast 518 596 35,000  Level FlightAware ADS-B
Sun 10:06:02 PM 40.0506 -110.9900 43° Northeast 518 596 35,000  Level FlightAware ADS-B
Sun 10:06:32 PM 40.1033 -110.9240 44° Northeast 518 596 35,000  Level FlightAware ADS-B
Sun 10:07:03 PM 40.1556 -110.8590 44° Northeast 516 594 35,000  Level FlightAware ADS-B
Sun 10:07:33 PM 40.2077 -110.7940 44° Northeast 516 594 35,000  Level FlightAware ADS-B
Sun 10:08:03 PM 40.2603 -110.7290 43° Northeast 516 594 35,000  Level FlightAware ADS-B
Sun 10:08:34 PM 40.3127 -110.6630 44° Northeast 516 594 35,000  Level FlightAware ADS-B
Sun 10:09:04 PM 40.3645 -110.5980 44° Northeast 516 594 35,000  Level FlightAware ADS-B
Sun 10:09:33 PM 40.4145 -110.5350 44° Northeast 517 595 35,000  Level FlightAware ADS-B
Sun 10:10:05 PM 40.4693 -110.4660 44° Northeast 518 596 35,000  Level FlightAware ADS-B
Sun 10:10:36 PM 40.5238 -110.3970 44° Northeast 518 596 35,000  Level FlightAware ADS-B
Sun 10:11:07 PM 40.5762 -110.3310 44° Northeast 519 597 35,000  Level FlightAware ADS-B
Sun 10:11:37 PM 40.6287 -110.2640 44° Northeast 520 598 35,000  Level FlightAware ADS-B
Sun 10:12:42 PM 40.7400 -110.1220 44° Northeast 519 597 35,000  Level FlightAware ADS-B
Sun 10:13:22 PM 40.8080 -110.0360 44° Northeast 521 600 35,000  Level FlightAware ADS-B
Sun 10:14:06 PM 40.8850 -109.9370 44° Northeast 521 600 35,000  Level FlightAware ADS-B
Sun 10:14:50 PM 40.9610 -109.8380 45° Northeast 521 600 35,000  Level FlightAware ADS-B
Sun 10:15:31 PM 41.0310 -109.7480 44° Northeast 521 600 35,000  Level FlightAware ADS-B
Sun 10:16:15 PM 41.1070 -109.6500 44° Northeast 521 600 35,000  Level FlightAware ADS-B
Sun 10:16:54 PM 41.1740 -109.5620 45° Northeast 521 600 35,000  Level FlightAware ADS-B
Sun 10:17:38 PM 41.2500 -109.4630 44° Northeast 521 600 35,000  Level FlightAware ADS-B
Sun 10:18:19 PM 41.3210 -109.3710 44° Northeast 523 602 35,000  Level FlightAware ADS-B
Sun 10:19:04 PM 41.3950 -109.2730 45° Northeast 523 602 35,000  Level FlightAware ADS-B
Sun 10:19:45 PM 41.4670 -109.1780 45° Northeast 522 601 35,000  Level FlightAware ADS-B
Sun 10:20:25 PM 41.5360 -109.0870 45° Northeast 523 602 35,000  Level FlightAware ADS-B
Sun 10:21:01 PM 41.5960 -109.0020 47° Northeast 526 605 35,000  Level FlightAware ADS-B
Sun 10:21:45 PM 41.6630 -108.8890 52° Northeast 527 606 35,000  Level FlightAware ADS-B
Sun 10:22:22 PM 41.7170 -108.7940 53° Northeast 524 603 35,000  Level FlightAware ADS-B
Sun 10:23:05 PM 41.7800 -108.6820 53° Northeast 521 600 35,000  Level FlightAware ADS-B
Sun 10:23:50 PM 41.8440 -108.5690 53° Northeast 520 598 35,000  Level FlightAware ADS-B
Sun 10:24:30 PM 41.9030 -108.4640 53° Northeast 523 602 35,000  Level FlightAware ADS-B
Sun 10:25:14 PM 41.9670 -108.3510 53° Northeast 524 603 35,000  Level FlightAware ADS-B
Sun 10:25:52 PM 42.0160 -108.2640 53° Northeast 524 603 35,000  Level FlightAware ADS-B
Sun 10:26:41 PM 42.0770 -108.1550 53° Northeast 524 603 35,000  Level FlightAware ADS-B
Sun 10:27:17 PM 42.1210 -108.0760 53° Northeast 524 603 35,000  Level FlightAware ADS-B
Sun 10:28:05 PM 42.1810 -107.9690 53° Northeast 524 603 35,000  Level FlightAware ADS-B
Sun 10:28:41 PM 42.2250 -107.8890 53° Northeast 524 603 35,000  Level FlightAware ADS-B
Sun 10:29:29 PM 42.2850 -107.7820 53° Northeast 524 603 35,000  Level FlightAware ADS-B
Sun 10:30:29 PM 42.3590 -107.6490 53° Northeast 524 603 35,000  Level FlightAware ADS-B
Sun 10:31:30 PM 42.4350 -107.5130 53° Northeast 524 603 35,000  Level FlightAware ADS-B
Sun 10:32:06 PM 42.4800 -107.4320 53° Northeast 524 603 35,000  Level FlightAware ADS-B
Sun 10:32:42 PM 42.5240 -107.3520 53° Northeast 524 603 35,000  Level FlightAware ADS-B
Sun 10:33:30 PM 42.5840 -107.2450 53° Northeast 524 603 35,000  Level FlightAware ADS-B
Sun 10:34:05 PM 42.6270 -107.1660 53° Northeast 524 603 35,000  Level FlightAware ADS-B
Sun 10:34:53 PM 42.6870 -107.0590 53° Northeast 524 603 35,000  Level FlightAware ADS-B
Sun 10:36:12 PM 42.9147 -106.6161 53° Northeast 529 609 35,000  Level Denver Center
Sun 10:37:14 PM 42.9958 -106.4611 54° Northeast 528 608 35,000  Level Denver Center
Sun 10:38:28 PM 43.1039 -106.2533 54° Northeast 525 604 35,000  Level Denver Center
Sun 10:39:30 PM 43.1803 -106.0928 57° Northeast 524 603 35,000  Level Denver Center
Sun 10:40:32 PM 43.2661 -105.9022 58° Northeast 526 605 35,000  Level Denver Center
Sun 10:41:34 PM 43.3425 -105.7378 57° Northeast 531 611 35,000  Level Denver Center
Sun 10:42:36 PM 43.4308 -105.5469 57° Northeast 529 609 35,000  Level Denver Center
Sun 10:43:38 PM 43.5069 -105.3819 58° Northeast 532 612 35,000  Level Denver Center
Sun 10:44:40 PM 43.5825 -105.2181 57° Northeast 530 610 35,000  Level Denver Center
Sun 10:45:42 PM 43.6686 -105.0264 58° Northeast 526 605 35,000  Level Denver Center
Sun 10:46:44 PM 43.7425 -104.8631 58° Northeast 524 603 35,000  Level Denver Center
Sun 10:47:46 PM 43.8278 -104.6700 58° Northeast 524 603 35,000  Level Denver Center
Sun 10:48:48 PM 43.9006 -104.5058 58° Northeast 523 602 35,000  Level Denver Center
Sun 10:49:50 PM 43.9856 -104.3117 59° Northeast 525 604 35,000  Level Denver Center
Sun 10:50:52 PM 44.0592 -104.1492 58° Northeast 521 600 35,000  Level Denver Center
Sun 10:51:53 PM 44.1436 -103.9542 59° Northeast 524 603 35,000  Level Denver Center
Sun 10:52:55 PM 44.2156 -103.7853 59° Northeast 527 606 35,000  Level Denver Center
Sun 10:53:57 PM 44.2892 -103.6178 58° Northeast 530 610 35,000  Level Denver Center
Sun 10:54:59 PM 44.3722 -103.4222 59° Northeast 525 604 35,000  Level Denver Center
Sun 10:56:01 PM 44.4433 -103.2547 59° Northeast 524 603 35,000  Level Denver Center
Sun 10:57:03 PM 44.5175 -103.0858 58° Northeast 523 602 35,000  Level Denver Center
Sun 10:58:05 PM 44.6050 -102.8725 60° Northeast 525 604 35,000  Level Denver Center
Sun 10:59:07 PM 44.6814 -102.6956 59° Northeast 529 609 35,000  Level Denver Center
Sun 11:00:09 PM 44.7733 -102.5353 51° Northeast 527 606 35,000  Level Denver Center
Sun 11:01:11 PM 44.8736 -102.3842 47° Northeast 527 606 35,000  Level Denver Center
Sun 11:02:18 PM 44.9867 -102.1986 49° Northeast 522 601 35,000  Level Minneapolis Center
Sun 11:03:19 PM 45.0864 -102.0464 47° Northeast 524 603 35,000  Level Minneapolis Center
Sun 11:04:20 PM 45.1864 -101.8922 47° Northeast 527 606 35,000  Level Minneapolis Center
Sun 11:05:22 PM 45.2856 -101.7364 48° Northeast 529 609 35,000  Level Minneapolis Center
Sun 11:06:23 PM 45.3836 -101.5781 49° Northeast 531 611 35,000  Level Minneapolis Center
Sun 11:07:24 PM 45.4828 -101.4206 48° Northeast 532 612 35,000  Level Minneapolis Center
Sun 11:08:25 PM 45.5808 -101.2614 49° Northeast 533 613 35,000  Level Minneapolis Center
Sun 11:09:26 PM 45.6786 -101.1031 48° Northeast 531 611 35,000  Level Minneapolis Center
Sun 11:10:27 PM 45.7756 -100.9417 49° Northeast 531 611 35,000  Level Minneapolis Center
Sun 11:11:29 PM 45.8747 -100.7800 49° Northeast 534 615 35,000  Level Minneapolis Center
Sun 11:12:30 PM 45.9747 -100.6128 49° Northeast 542 624 35,000  Level Minneapolis Center
Sun 11:13:31 PM 46.0725 -100.4483 49° Northeast 539 620 35,000  Level Minneapolis Center
Sun 11:14:32 PM 46.1708 -100.2844 49° Northeast 539 620 35,000  Level Minneapolis Center
Sun 11:15:33 PM 46.2878 -100.0844 50° Northeast 541 623 35,000  Level Minneapolis Center
Sun 11:16:34 PM 46.3861 -99.9194 49° Northeast 541 623 35,000  Level Minneapolis Center
Sun 11:17:36 PM 46.4819 -99.7522 50° Northeast 540 621 35,000  Level Minneapolis Center
Sun 11:18:37 PM 46.5792 -99.5836 50° Northeast 543 625 35,000 -49 Level Minneapolis Center
Sun 11:19:38 PM 46.6697 -99.4264 50° Northeast 543 625 34,900  Descending Minneapolis Center
Sun 11:20:39 PM 46.7664 -99.2578 50° Northeast 543 625 35,000 15 Climbing Minneapolis Center
Sun 11:26:18 PM 47.3280 -98.2590 50° Northeast 550 633 35,000  Level FlightAware ADS-B
Sun 11:27:00 PM 47.3940 -98.1380 51° Northeast 551 634 35,000  Level FlightAware ADS-B
Sun 11:27:44 PM 47.4660 -98.0060 51° Northeast 552 635 35,000  Level FlightAware ADS-B
Sun 11:28:24 PM 47.5300 -97.8900 51° Northeast 552 635 35,000  Level FlightAware ADS-B
Sun 11:29:08 PM 47.5990 -97.7610 52° Northeast 553 636 35,000  Level FlightAware ADS-B
Sun 11:29:46 PM 47.6600 -97.6500 51° Northeast 553 636 35,000  Level FlightAware ADS-B
Sun 11:30:32 PM 47.7340 -97.5110 52° Northeast 554 638 35,000  Level FlightAware ADS-B
Sun 11:31:14 PM 47.8020 -97.3850 51° Northeast 555 639 35,000  Level FlightAware ADS-B
Sun 11:31:58 PM 47.8720 -97.2540 51° Northeast 555 639 35,000  Level FlightAware ADS-B
Sun 11:32:30 PM 47.9210 -97.1600 52° Northeast 556 640 35,000  Level FlightAware ADS-B
Sun 11:33:14 PM 47.9920 -97.0270 51° Northeast 557 641 35,000  Level FlightAware ADS-B
Sun 11:33:54 PM 48.0560 -96.9040 52° Northeast 558 642 35,000  Level FlightAware ADS-B
Sun 11:34:38 PM 48.1250 -96.7720 52° Northeast 557 641 35,000  Level FlightAware ADS-B
Sun 11:35:18 PM 48.1880 -96.6500 52° Northeast 558 642 35,000  Level FlightAware ADS-B
Sun 11:36:02 PM 48.2580 -96.5160 52° Northeast 560 644 35,000  Level FlightAware ADS-B
Sun 11:36:42 PM 48.3210 -96.3930 52° Northeast 560 644 35,000  Level FlightAware ADS-B
Sun 11:37:22 PM 48.3840 -96.2700 52° Northeast 561 646 35,000  Level FlightAware ADS-B
Sun 11:37:58 PM 48.4390 -96.1620 52° Northeast 562 647 35,000  Level FlightAware ADS-B
Sun 11:38:38 PM 48.5040 -96.0350 52° Northeast 561 646 35,000  Level FlightAware ADS-B
Sun 11:39:40 PM 48.5960 -95.8550 52° Northeast 563 648 35,000  Level FlightAware ADS-B
Sun 11:40:29 PM 48.6630 -95.7260 52° Northeast 563 648 35,000  Level FlightAware ADS-B
Sun 11:41:05 PM 48.7120 -95.6310 52° Northeast 563 648 35,000  Level FlightAware ADS-B
Sun 11:41:53 PM 48.7770 -95.5040 52° Northeast 563 648 35,000  Level FlightAware ADS-B
Sun 11:42:29 PM 48.8260 -95.4090 52° Northeast 563 648 35,000  Level FlightAware ADS-B
Sun 11:43:17 PM 48.8920 -95.2810 52° Northeast 563 648 35,000  Level FlightAware ADS-B
Sun 11:43:53 PM 48.9410 -95.1860 52° Northeast 563 648 35,000  Level FlightAware ADS-B
Sun 11:44:30 PM 48.9910 -95.0870 52° Northeast 563 648 35,000  Level FlightAware ADS-B
Sun 11:45:06 PM 49.0400 -94.9920 52° Northeast 563 648 35,000  Level FlightAware ADS-B
Sun 11:45:55 PM 49.1070 -94.8610 52° Northeast 563 648 35,000  Level FlightAware ADS-B
Sun 11:46:31 PM 49.1560 -94.7650 52° Northeast 563 648 35,000  Level FlightAware ADS-B
Sun 11:47:07 PM 49.2050 -94.6690 52° Northeast 563 648 35,000  Level FlightAware ADS-B
Sun 11:47:55 PM 49.2700 -94.5410 52° Northeast 563 648 35,000  Level FlightAware ADS-B
Sun 11:48:32 PM 49.3210 -94.4420 52° Northeast 563 648 35,000  Level FlightAware ADS-B
Sun 11:49:32 PM 49.4667 -93.9333 52° Northeast 560 644 35,000  Level Winnipeg Center
Sun 11:50:32 PM 49.5167 -93.7000 72° East 560 644 35,000  Level Winnipeg Center
Sun 11:51:32 PM 49.5333 -93.4667 84° East 560 644 35,000  Level Winnipeg Center
Sun 11:52:32 PM 49.5667 -93.2333 77° East 560 644 35,000  Level Winnipeg Center
Sun 11:58:27 PM 49.7810 -91.8430 77° East 559 643 35,000  Level FlightAware ADS-B
Sun 11:59:06 PM 49.7980 -91.7130 78° East 559 643 35,000  Level FlightAware ADS-B
Sun 11:59:55 PM 49.8210 -91.5500 78° East 559 643 35,000  Level FlightAware ADS-B
Mon 12:00:31 AM 49.8370 -91.4300 78° East 559 643 35,000  Level FlightAware ADS-B
Mon 12:01:07 AM 49.8540 -91.3100 78° East 559 643 35,000  Level FlightAware ADS-B
Mon 12:01:53 AM 49.8750 -91.1560 78° East 559 643 35,000  Level FlightAware ADS-B
Mon 12:02:29 AM 49.8910 -91.0360 78° East 559 643 35,000  Level FlightAware ADS-B
Mon 12:03:05 AM 49.9080 -90.9160 78° East 559 643 35,000  Level FlightAware ADS-B
Mon 12:03:53 AM 49.9290 -90.7550 78° East 559 643 35,000  Level FlightAware ADS-B
Mon 12:04:29 AM 49.9460 -90.6350 78° East 559 643 35,000  Level FlightAware ADS-B
Mon 12:05:17 AM 49.9680 -90.4750 78° East 559 643 35,000  Level FlightAware ADS-B
Mon 12:05:53 AM 49.9840 -90.3540 78° East 559 643 35,000  Level FlightAware ADS-B
Mon 12:06:42 AM 50.0070 -90.1900 78° East 559 643 35,000  Level FlightAware ADS-B
Mon 12:07:18 AM 50.0230 -90.0700 78° East 559 643 35,000  Level FlightAware ADS-B
Mon 12:07:54 AM 50.0390 -89.9490 78° East 559 643 35,000  Level FlightAware ADS-B
Mon 12:08:30 AM 50.1667 -89.4833 78° East 550 633 35,000  Level Edmonton Center
Mon 12:09:30 AM 50.2333 -89.3000 60° Northeast 530 610 35,000  Level Edmonton Center
Mon 12:10:30 AM 50.3333 -89.1000 52° Northeast 580 667 35,000  Level Edmonton Center
Mon 12:11:30 AM 50.4167 -88.8833 59° Northeast 560 644 35,000  Level Edmonton Center
Mon 12:12:30 AM 50.5167 -88.6833 52° Northeast 530 610 35,000  Level Edmonton Center
Mon 12:13:30 AM 50.6000 -88.4667 59° Northeast 590 679 35,000  Level Edmonton Center
Mon 12:14:30 AM 50.6667 -88.2667 62° Northeast 530 610 35,000  Level Edmonton Center
Mon 12:15:32 AM 50.7833 -88.0833 45° Northeast 560 644 35,000  Level Winnipeg Center
Mon 12:16:30 AM 50.8667 -87.8333 62° Northeast 580 667 35,000  Level Edmonton Center
Mon 12:17:32 AM 50.9500 -87.6500 54° Northeast 570 656 35,000  Level Winnipeg Center
Mon 12:18:32 AM 51.0500 -87.4667 49° Northeast 570 656 35,000  Level Winnipeg Center
Mon 12:19:32 AM 51.1333 -87.2333 60° Northeast 580 667 35,000  Level Winnipeg Center
Mon 12:20:30 AM 51.2000 -87.0167 64° Northeast 570 656 35,000  Level Edmonton Center
Mon 12:21:30 AM 51.2833 -86.8167 56° Northeast 570 656 35,000  Level Edmonton Center
Mon 12:22:30 AM 51.3667 -86.5833 60° Northeast 570 656 35,000  Level Edmonton Center
Mon 12:23:30 AM 51.4500 -86.3833 56° Northeast 560 644 35,000  Level Edmonton Center
Mon 12:24:30 AM 51.5333 -86.1667 58° Northeast 580 667 35,000  Level Edmonton Center
Mon 12:25:30 AM 51.6167 -85.9333 60° Northeast 570 656 35,000  Level Edmonton Center
Mon 12:26:30 AM 51.7000 -85.7333 56° Northeast 570 656 35,000  Level Edmonton Center
Mon 12:27:30 AM 51.7833 -85.5000 60° Northeast 580 667 35,000  Level Edmonton Center
Mon 12:28:30 AM 51.8667 -85.2833 58° Northeast 570 656 35,000  Level Edmonton Center
Mon 12:29:30 AM 51.9500 -85.0500 60° Northeast 580 667 35,000  Level Edmonton Center
Mon 12:30:30 AM 52.0333 -84.8333 58° Northeast 580 667 35,000  Level Edmonton Center
Mon 12:31:30 AM 52.1000 -84.6000 65° Northeast 580 667 35,000  Level Edmonton Center
Mon 12:32:30 AM 52.2000 -84.3500 57° Northeast 590 679 35,000  Level Edmonton Center
Mon 12:33:30 AM 52.2833 -84.1500 56° Northeast 580 667 35,000  Level Edmonton Center
Mon 12:34:30 AM 52.3500 -83.9000 66° East 580 667 35,000  Level Edmonton Center
Mon 12:35:30 AM 52.4333 -83.6833 58° Northeast 570 656 35,000  Level Edmonton Center
Mon 12:36:30 AM 52.5167 -83.4500 60° Northeast 590 679 35,000  Level Edmonton Center
Mon 12:37:30 AM 52.6000 -83.2500 55° Northeast 560 644 35,000  Level Edmonton Center
Mon 12:38:30 AM 52.6667 -82.9833 68° East 600 690 35,000  Level Edmonton Center
Mon 12:39:30 AM 52.7500 -82.7667 58° Northeast 590 679 35,000  Level Edmonton Center
Mon 12:40:30 AM 52.8333 -82.5167 61° Northeast 580 667 35,000  Level Edmonton Center
Mon 12:41:30 AM 52.9167 -82.3000 57° Northeast 590 679 35,000  Level Edmonton Center
Mon 12:42:30 AM 52.9833 -82.0500 66° East 590 679 35,000  Level Edmonton Center
Mon 12:43:30 AM 53.0667 -81.8333 57° Northeast 590 679 35,000  Level Edmonton Center
Mon 12:44:30 AM 53.1333 -81.5833 66° East 590 679 35,000  Level Edmonton Center
Mon 12:45:30 AM 53.2167 -81.3167 62° Northeast 590 679 35,000  Level Edmonton Center
Mon 12:46:30 AM 53.3000 -81.1000 57° Northeast 590 679 35,000  Level Edmonton Center
Mon 12:47:30 AM 53.3667 -80.8500 66° East 590 679 35,000  Level Edmonton Center
Mon 12:48:30 AM 53.4500 -80.5833 62° Northeast 590 679 35,000  Level Edmonton Center
Mon 12:49:30 AM 53.5167 -80.3500 64° Northeast 590 679 35,000  Level Edmonton Center
Mon 12:50:30 AM 53.6000 -80.0833 62° Northeast 590 679 35,000  Level Edmonton Center
Mon 12:51:30 AM 53.6667 -79.8333 66° East 590 679 35,000  Level Edmonton Center
Mon 12:52:30 AM 53.7167 -79.5833 71° East 600 690 35,000  Level Edmonton Center
Mon 12:53:30 AM 53.7833 -79.3000 68° East 600 690 35,000  Level Edmonton Center
Mon 12:54:30 AM 53.8333 -79.0667 70° East 600 690 35,000  Level Edmonton Center
Mon 12:55:30 AM 53.8833 -78.7833 73° East 610 702 35,000  Level Edmonton Center
Mon 12:56:30 AM 53.9500 -78.5000 68° East 610 702 35,000  Level Edmonton Center
Mon 12:57:30 AM 53.9833 -78.2167 79° East 610 702 35,000  Level Edmonton Center
Mon 12:58:30 AM 54.0500 -77.9667 65° Northeast 610 702 35,000  Level Edmonton Center
Mon 12:59:30 AM 54.1000 -77.6667 74° East 610 702 35,000  Level Edmonton Center
Mon 01:00:30 AM 54.1500 -77.4167 71° East 610 702 35,000  Level Edmonton Center
Mon 01:01:30 AM 54.2000 -77.1333 73° East 610 702 35,000  Level Edmonton Center
Mon 01:02:59 AM 54.3167 -76.9000 49° Northeast 610 702 35,000  Level Gander Center
Mon 01:03:59 AM 54.3667 -76.6167 73° East 610 702 35,000  Level Gander Center
Mon 01:04:59 AM 54.4167 -76.3500 72° East 610 702 35,000  Level Gander Center
Mon 01:05:59 AM 54.4667 -76.0833 72° East 610 702 35,000  Level Gander Center
Mon 01:06:59 AM 54.5167 -75.7833 74° East 610 702 35,000  Level Gander Center
Mon 01:07:50 AM 54.5667 -75.5000 73° East 600 690 35,000  Level Montreal Center
Mon 01:07:59 AM 54.5667 -75.5000 73° East 610 702 35,000  Level Gander Center
Mon 01:08:50 AM 54.6000 -75.2000 79° East 600 690 35,000  Level Montreal Center
Mon 01:09:50 AM 54.6500 -74.9167 73° East 600 690 35,000  Level Montreal Center
Mon 01:10:50 AM 54.7000 -74.6500 72° East 600 690 35,000  Level Montreal Center
Mon 01:11:50 AM 54.7500 -74.3667 73° East 600 690 35,000  Level Montreal Center
Mon 01:12:50 AM 54.7833 -74.1000 78° East 610 702 35,000  Level Montreal Center
Mon 01:13:50 AM 54.8167 -73.8000 79° East 610 702 35,000  Level Montreal Center
Mon 01:14:50 AM 54.8667 -73.5000 74° East 610 702 35,000  Level Montreal Center
Mon 01:15:50 AM 54.9167 -73.2333 72° East 610 702 35,000  Level Montreal Center
Mon 01:16:50 AM 54.9500 -72.9500 78° East 610 702 35,000  Level Montreal Center
Mon 01:17:50 AM 55.0000 -72.6500 74° East 600 690 35,000  Level Montreal Center
Mon 01:18:50 AM 55.0333 -72.3833 78° East 610 702 35,000  Level Montreal Center
Mon 01:19:50 AM 55.0833 -72.0833 74° East 610 702 35,000  Level Montreal Center
Mon 01:20:50 AM 55.1167 -71.7833 79° East 610 702 35,000  Level Montreal Center
Mon 01:21:50 AM 55.1667 -71.4833 74° East 610 702 35,000  Level Montreal Center
Mon 01:22:50 AM 55.2000 -71.1833 79° East 600 690 35,000  Level Montreal Center
Mon 01:23:50 AM 55.2167 -70.9167 84° East 600 690 35,000  Level Montreal Center
Mon 01:24:50 AM 55.2667 -70.6333 73° East 600 690 35,000  Level Montreal Center
Mon 01:25:50 AM 55.3000 -70.3333 79° East 600 690 35,000  Level Montreal Center
Mon 01:26:50 AM 55.3333 -70.0667 78° East 600 690 35,000  Level Montreal Center
Mon 01:27:59 AM 55.3667 -69.7667 79° East 600 690 35,000  Level Gander Center
Mon 01:28:59 AM 55.4000 -69.4667 79° East 600 690 35,000  Level Gander Center
Mon 01:29:59 AM 55.4500 -69.1833 73° East 590 679 35,000  Level Gander Center
Mon 01:30:59 AM 55.5333 -68.9667 56° Northeast 580 667 35,000  Level Gander Center
Mon 01:31:59 AM 55.6167 -68.7167 59° Northeast 570 656 35,000  Level Gander Center
Mon 01:32:59 AM 55.6833 -68.4667 65° Northeast 570 656 35,000  Level Gander Center
Mon 01:33:59 AM 55.7667 -68.2000 61° Northeast 570 656 35,000  Level Gander Center
Mon 01:34:59 AM 55.8500 -67.9500 59° Northeast 580 667 35,000  Level Gander Center
Mon 01:35:59 AM 55.9000 -67.7000 70° East 580 667 35,000  Level Gander Center
Mon 01:36:59 AM 55.9833 -67.4667 57° Northeast 580 667 35,000  Level Gander Center
Mon 01:37:59 AM 56.0667 -67.2167 59° Northeast 580 667 35,000  Level Gander Center
Mon 01:38:59 AM 56.1333 -66.9500 66° East 580 667 35,000  Level Gander Center
Mon 01:39:59 AM 56.2000 -66.6833 66° East 580 667 35,000  Level Gander Center
Mon 01:40:59 AM 56.2667 -66.4000 67° East 580 667 35,000  Level Gander Center
Mon 01:41:59 AM 56.3500 -66.1667 57° Northeast 580 667 35,000  Level Gander Center
Mon 01:42:59 AM 56.4167 -65.9000 66° East 580 667 35,000  Level Gander Center
Mon 01:43:59 AM 56.5000 -65.6333 60° Northeast 580 667 35,000  Level Gander Center
Mon 01:44:59 AM 56.5667 -65.4000 63° Northeast 570 656 35,000  Level Gander Center
Mon 01:45:59 AM 56.6500 -65.1333 60° Northeast 580 667 35,000  Level Gander Center
Mon 01:46:59 AM 56.7167 -64.8667 65° Northeast 570 656 35,000  Level Gander Center
Mon 01:47:59 AM 56.8000 -64.6333 57° Northeast 570 656 35,000  Level Gander Center
Mon 01:48:59 AM 56.8667 -64.3667 65° Northeast 580 667 35,000  Level Gander Center
Mon 01:49:59 AM 56.9333 -64.1000 65° Northeast 580 667 35,000  Level Gander Center
Mon 01:50:59 AM 57.0167 -63.8500 58° Northeast 580 667 35,000  Level Gander Center
Mon 01:51:59 AM 57.1000 -63.5500 63° Northeast 580 667 35,000  Level Gander Center
Mon 01:52:59 AM 57.1667 -63.3167 62° Northeast 580 667 35,000  Level Gander Center
Mon 01:53:59 AM 57.2333 -63.0333 66° East 580 667 35,000  Level Gander Center
Mon 01:54:59 AM 57.3167 -62.7667 60° Northeast 580 667 35,000  Level Gander Center
Mon 01:55:59 AM 57.3833 -62.5167 64° Northeast 570 656 35,000  Level Gander Center
Mon 01:56:59 AM 57.4500 -62.2500 65° Northeast 570 656 35,000  Level Gander Center
Mon 01:57:59 AM 57.5167 -62.0000 64° Northeast 580 667 35,000  Level Gander Center
Mon 01:58:59 AM 57.5833 -61.7167 66° East 570 656 35,000  Level Gander Center
Mon 01:59:59 AM 57.6500 -61.4667 63° Northeast 560 644 35,000  Level Gander Center
Mon 02:00:59 AM 57.7167 -61.1833 66° East 560 644 35,000  Level Gander Center
Mon 02:01:59 AM 57.7833 -60.9333 63° Northeast 560 644 35,000  Level Gander Center
Mon 02:02:59 AM 57.8333 -60.6833 69° East 550 633 35,000  Level Gander Center
Mon 02:03:59 AM 57.9167 -60.4000 61° Northeast 560 644 35,000  Level Gander Center
Mon 02:04:59 AM 57.9833 -60.1500 63° Northeast 550 633 35,000  Level Gander Center
Mon 02:05:59 AM 58.0333 -59.8667 71° East 540 621 35,000  Level Gander Center
Mon 02:06:59 AM 58.0500 -59.5833 84° East 550 633 35,000  Level Gander Center
Mon 02:07:56 AM 58.0167 -59.9167 86° East 540 621 35,000  Level ETMS Enhanced Traffic Management System
Mon 02:08:59 AM 58.0667 -59.0167 86° East 550 633 35,000  Level Gander Center
Mon 02:09:59 AM 58.0667 -58.7333 90° East 550 633 35,000  Level Gander Center
Mon 02:10:59 AM 58.0667 -58.4500 90° East 550 633 35,000  Level Gander Center
Mon 02:11:59 AM 58.0833 -58.1667 84° East 540 621 35,000  Level Gander Center
Mon 02:12:59 AM 58.1000 -57.8833 84° East 540 621 35,000  Level Gander Center
Mon 02:13:59 AM 58.1000 -57.5833 90° East 540 621 35,000  Level Gander Center
Mon 02:14:59 AM 58.1000 -57.3000 90° East 540 621 35,000  Level Gander Center
Mon 02:15:59 AM 58.1000 -57.0167 90° East 530 610 35,000  Level Gander Center
Mon 02:16:59 AM 58.1167 -56.7333 84° East 530 610 35,000  Level Gander Center
Mon 02:17:59 AM 58.1167 -56.4500 90° East 530 610 35,000  Level Gander Center
Mon 02:18:59 AM 58.1000 -56.2000 97° East 530 610 35,000  Level Gander Center
Mon 02:19:59 AM 58.1167 -55.9167 84° East 530 610 35,000  Level Gander Center
Mon 02:20:59 AM 58.1167 -55.6333 90° East 530 610 35,000  Level Gander Center
Mon 02:21:59 AM 58.1167 -55.3500 90° East 530 610 35,000  Level Gander Center
Mon 02:22:59 AM 58.1167 -55.1000 90° East 530 610 35,000  Level Gander Center
Mon 02:23:59 AM 58.1167 -54.8000 90° East 530 610 35,000  Level Gander Center
Mon 02:24:59 AM 58.1167 -54.5167 90° East 520 598 35,000  Level Gander Center
Mon 02:25:59 AM 58.1000 -54.2667 97° East 520 598 35,000  Level Gander Center
Mon 02:27:17 AM 58.1000 -53.9000 90° East 540 621 35,000  Level Gander Center
Mon 02:29:00 AM 58.0945 -53.4421 91° East  Level FlightAware Approximate
Mon 02:33:19 AM 58.0667 -52.1833 93° East 530 610 35,000  Level Gander Center
Mon 02:34:19 AM 58.0667 -51.9333 90° East 530 610 35,000  Level Gander Center
Mon 02:35:19 AM 58.0667 -51.6500 90° East 520 598 35,000 Level Gander Center
Mon 02:36:00 AM 58.0549 -51.5771 92° East  Level FlightAware Approximate
Mon 02:37:00 AM 58.0470 -51.3111 93° East  Level FlightAware Approximate
Mon 02:37:00 AM 58.0507 -51.2030 94° East  Level FlightAware Approximate
Mon 02:38:00 AM 58.0386 -51.0452 93° East  Level FlightAware Approximate
Mon 02:44:00 AM 58.0228 -49.3471 86° East  Level FlightAware Approximate
Mon 02:45:00 AM 58.0311 -49.0816 87° East  Level FlightAware Approximate
Mon 02:46:00 AM 58.0388 -48.8160 87° East  Level FlightAware Approximate
Mon 02:47:00 AM 58.0460 -48.5503 87° East  Level FlightAware Approximate
Mon 02:48:00 AM 58.0526 -48.2845 87° East  Level FlightAware Approximate
Mon 02:49:00 AM 58.0587 -48.0187 87° East  Level FlightAware Approximate
Mon 02:50:00 AM 58.0642 -47.7527 88° East  Level FlightAware Approximate
Mon 02:51:00 AM 58.0692 -47.4866 88° East  Level FlightAware Approximate
Mon 02:52:00 AM 58.0736 -47.2205 88° East  Level FlightAware Approximate
Mon 02:53:00 AM 58.0774 -46.9543 88° East  Level FlightAware Approximate
Mon 02:54:00 AM 58.0807 -46.6881 89° East  Level FlightAware Approximate
Mon 02:55:00 AM 58.0835 -46.4218 89° East  Level FlightAware Approximate
Mon 02:56:00 AM 58.0857 -46.1555 89° East  Level FlightAware Approximate
Mon 02:57:00 AM 58.0873 -45.8891 89° East  Level FlightAware Approximate
Mon 02:58:00 AM 58.0884 -45.6228 89° East  Level FlightAware Approximate
Mon 02:59:00 AM 58.0889 -45.3564 90° East  Level FlightAware Approximate
Mon 03:00:00 AM 58.0889 -45.0900 90° East  Level FlightAware Approximate
Mon 03:01:00 AM 58.0883 -44.8236 90° East  Level FlightAware Approximate
Mon 03:02:00 AM 58.0872 -44.5573 90° East  Level FlightAware Approximate
Mon 03:03:00 AM 58.0855 -44.2909 91° East  Level FlightAware Approximate
Mon 03:04:00 AM 58.0832 -44.0246 91° East  Level FlightAware Approximate
Mon 03:05:00 AM 58.0804 -43.7583 91° East  Level FlightAware Approximate
Mon 03:06:00 AM 58.0771 -43.4921 91° East  Level FlightAware Approximate
Mon 03:07:00 AM 58.0731 -43.2259 91° East  Level FlightAware Approximate
Mon 03:08:00 AM 58.0687 -42.9598 92° East  Level FlightAware Approximate
Mon 03:09:00 AM 58.0647 -42.6936 91° East  Level FlightAware Approximate
Mon 03:10:00 AM 58.0608 -42.4276 91° East  Level FlightAware Approximate
Mon 03:11:00 AM 58.0564 -42.1615 92° East  Level FlightAware Approximate
Mon 03:12:00 AM 58.0514 -41.8956 92° East  Level FlightAware Approximate
Mon 03:13:00 AM 58.0459 -41.6297 92° East  Level FlightAware Approximate
Mon 03:14:00 AM 58.0399 -41.3639 92° East  Level FlightAware Approximate
Mon 03:15:00 AM 58.0333 -41.0982 93° East  Level FlightAware Approximate
Mon 03:16:00 AM 58.0261 -40.8326 93° East  Level FlightAware Approximate
Mon 03:17:00 AM 58.0184 -40.5671 93° East  Level FlightAware Approximate
Mon 03:18:00 AM 58.0101 -40.3017 93° East  Level FlightAware Approximate
Mon 03:19:00 AM 58.0013 -40.0365 93° East  Level FlightAware Approximate
Mon 03:20:00 AM 58.0314 -39.7785 75° East  Level FlightAware Approximate
Mon 03:21:00 AM 58.0672 -39.5212 75° East  Level FlightAware Approximate
Mon 03:22:00 AM 58.1026 -39.2634 75° East  Level FlightAware Approximate
Mon 03:23:00 AM 58.1375 -39.0051 76° East  Level FlightAware Approximate
Mon 03:24:00 AM 58.1718 -38.7463 76° East  Level FlightAware Approximate
Mon 03:25:00 AM 58.2056 -38.4869 76° East  Level FlightAware Approximate
Mon 03:26:00 AM 58.2389 -38.2271 76° East  Level FlightAware Approximate
Mon 03:27:00 AM 58.2716 -37.9668 76° East  Level FlightAware Approximate
Mon 03:28:00 AM 58.3038 -37.7061 77° East  Level FlightAware Approximate
Mon 03:29:00 AM 58.3355 -37.4448 77° East  Level FlightAware Approximate
Mon 03:30:00 AM 58.3666 -37.1831 77° East  Level FlightAware Approximate
Mon 03:31:00 AM 58.3973 -36.9209 77° East  Level FlightAware Approximate
Mon 03:32:00 AM 58.4273 -36.6583 78° East  Level FlightAware Approximate
Mon 03:33:00 AM 58.4569 -36.3952 78° East  Level FlightAware Approximate
Mon 03:34:00 AM 58.4859 -36.1317 78° East  Level FlightAware Approximate
Mon 03:35:00 AM 58.5143 -35.8678 78° East  Level FlightAware Approximate
Mon 03:36:00 AM 58.5423 -35.6034 78° East  Level FlightAware Approximate
Mon 03:37:00 AM 58.5696 -35.3386 79° East  Level FlightAware Approximate
Mon 03:38:00 AM 58.5965 -35.0735 79° East  Level FlightAware Approximate
Mon 03:39:00 AM 58.6227 -34.8079 79° East  Level FlightAware Approximate
Mon 03:40:00 AM 58.6485 -34.5419 79° East  Level FlightAware Approximate
Mon 03:41:00 AM 58.6737 -34.2755 80° East  Level FlightAware Approximate
Mon 03:42:00 AM 58.6984 -34.0088 80° East  Level FlightAware Approximate
Mon 03:43:00 AM 58.7225 -33.7417 80° East  Level FlightAware Approximate
Mon 03:44:00 AM 58.7461 -33.4742 80° East  Level FlightAware Approximate
Mon 03:45:00 AM 58.7691 -33.2064 80° East  Level FlightAware Approximate
Mon 03:46:00 AM 58.7916 -32.9382 81° East  Level FlightAware Approximate
Mon 03:47:00 AM 58.8136 -32.6697 81° East  Level FlightAware Approximate
Mon 03:48:00 AM 58.8349 -32.4008 81° East  Level FlightAware Approximate
Mon 03:49:00 AM 58.8557 -32.1316 81° East  Level FlightAware Approximate
Mon 03:50:00 AM 58.8760 -31.8621 82° East  Level FlightAware Approximate
Mon 03:51:00 AM 58.8957 -31.5923 82° East  Level FlightAware Approximate
Mon 03:52:00 AM 58.9148 -31.3222 82° East  Level FlightAware Approximate
Mon 03:53:00 AM 58.9333 -31.0518 82° East  Level FlightAware Approximate
Mon 03:54:00 AM 58.9514 -30.7810 83° East  Level FlightAware Approximate
Mon 03:55:00 AM 58.9688 -30.5101 83° East  Level FlightAware Approximate
Mon 03:56:00 AM 58.9856 -30.2388 83° East  Level FlightAware Approximate
Mon 03:57:00 AM 59.0013 -29.9671 86° East  Level FlightAware Approximate
Mon 03:58:00 AM 59.0114 -29.6944 86° East  Level FlightAware Approximate
Mon 03:59:00 AM 59.0210 -29.4215 86° East  Level FlightAware Approximate
Mon 04:00:00 AM 59.0301 -29.1485 86° East  Level FlightAware Approximate
Mon 04:01:00 AM 59.0385 -28.8753 86° East  Level FlightAware Approximate
Mon 04:02:00 AM 59.0464 -28.6020 87° East  Level FlightAware Approximate
Mon 04:03:00 AM 59.0537 -28.3286 87° East  Level FlightAware Approximate
Mon 04:04:00 AM 59.0604 -28.0550 87° East  Level FlightAware Approximate
Mon 04:05:00 AM 59.0666 -27.7814 87° East  Level FlightAware Approximate
Mon 04:06:00 AM 59.0721 -27.5076 88° East  Level FlightAware Approximate
Mon 04:07:00 AM 59.0771 -27.2338 88° East  Level FlightAware Approximate
Mon 04:08:00 AM 59.0816 -26.9599 88° East  Level FlightAware Approximate
Mon 04:09:00 AM 59.0854 -26.6860 88° East  Level FlightAware Approximate
Mon 04:10:00 AM 59.0887 -26.4119 89° East  Level FlightAware Approximate
Mon 04:11:00 AM 59.0914 -26.1379 89° East  Level FlightAware Approximate
Mon 04:12:00 AM 59.0935 -25.8638 89° East  Level FlightAware Approximate
Mon 04:13:00 AM 59.0950 -25.5896 89° East  Level FlightAware Approximate
Mon 04:14:00 AM 59.0960 -25.3155 89° East  Level FlightAware Approximate
Mon 04:15:00 AM 59.0963 -25.0413 90° East  Level FlightAware Approximate
Mon 04:16:00 AM 59.0961 -24.7671 90° East  Level FlightAware Approximate
Mon 04:17:00 AM 59.0953 -24.4930 90° East  Level FlightAware Approximate
Mon 04:18:00 AM 59.0940 -24.2188 90° East  Level FlightAware Approximate
Mon 04:19:00 AM 59.0920 -23.9447 91° East  Level FlightAware Approximate
Mon 04:20:00 AM 59.0895 -23.6706 91° East  Level FlightAware Approximate
Mon 04:21:00 AM 59.0864 -23.3966 91° East  Level FlightAware Approximate
Mon 04:22:00 AM 59.0828 -23.1226 91° East  Level FlightAware Approximate
Mon 04:23:00 AM 59.0785 -22.8487 92° East  Level FlightAware Approximate
Mon 04:24:00 AM 59.0737 -22.5748 92° East  Level FlightAware Approximate
Mon 04:25:00 AM 59.0683 -22.3011 92° East  Level FlightAware Approximate
Mon 04:26:00 AM 59.0623 -22.0274 92° East  Level FlightAware Approximate
Mon 04:27:00 AM 59.0558 -21.7538 93° East  Level FlightAware Approximate
Mon 04:28:00 AM 59.0486 -21.4804 93° East  Level FlightAware Approximate
Mon 04:29:00 AM 59.0410 -21.2070 93° East  Level FlightAware Approximate
Mon 04:30:00 AM 59.0327 -20.9338 93° East  Level FlightAware Approximate
Mon 04:31:00 AM 59.0238 -20.6607 93° East  Level FlightAware Approximate
Mon 04:32:00 AM 59.0144 -20.3878 94° East  Level FlightAware Approximate
Mon 04:33:00 AM 59.0044 -20.1150 94° East  Level FlightAware Approximate
Mon 04:34:00 AM 59.0029 -19.8420 88° East  Level FlightAware Approximate
Mon 04:35:00 AM 59.0076 -19.5687 88° East  Level FlightAware Approximate
Mon 04:36:00 AM 59.0117 -19.2953 88° East  Level FlightAware Approximate
Mon 04:37:00 AM 59.0152 -19.0219 88° East  Level FlightAware Approximate
Mon 04:38:00 AM 59.0181 -18.7485 89° East  Level FlightAware Approximate
Mon 04:39:00 AM 59.0204 -18.4749 89° East  Level FlightAware Approximate
Mon 04:40:00 AM 59.0222 -18.2014 89° East  Level FlightAware Approximate
Mon 04:41:00 AM 59.0234 -17.9278 89° East  Level FlightAware Approximate
Mon 04:42:00 AM 59.0240 -17.6542 90° East  Level FlightAware Approximate
Mon 04:43:00 AM 59.0240 -17.3806 90° East  Level FlightAware Approximate
Mon 04:44:00 AM 59.0235 -17.1070 90° East  Level FlightAware Approximate
Mon 04:45:00 AM 59.0224 -16.8335 90° East  Level FlightAware Approximate
Mon 04:46:00 AM 59.0207 -16.5599 91° East  Level FlightAware Approximate
Mon 04:47:00 AM 59.0184 -16.2864 91° East  Level FlightAware Approximate
Mon 04:48:00 AM 59.0156 -16.0129 91° East  Level FlightAware Approximate
Mon 04:49:00 AM 59.0121 -15.7395 91° East  Level FlightAware Approximate
Mon 04:50:00 AM 59.0081 -15.4661 92° East  Level FlightAware Approximate
Mon 04:51:00 AM 59.0036 -15.1928 92° East  Level FlightAware Approximate
Mon 04:52:00 AM 58.9770 -14.9332 124° Southeast  Level FlightAware Approximate
Mon 04:53:00 AM 58.8984 -14.7067 124° Southeast  Level FlightAware Approximate
Mon 04:54:00 AM 58.8194 -14.4812 124° Southeast  Level FlightAware Approximate
Mon 04:55:00 AM 58.7401 -14.2568 124° Southeast  Level FlightAware Approximate
Mon 04:56:00 AM 58.6603 -14.0334 124° Southeast  Level FlightAware Approximate
Mon 04:57:00 AM 58.5802 -13.8111 125° Southeast  Level FlightAware Approximate
Mon 04:58:00 AM 58.4997 -13.5897 125° Southeast  Level FlightAware Approximate
Mon 04:59:00 AM 58.4188 -13.3694 125° Southeast  Level FlightAware Approximate
Mon 05:00:00 AM 58.3375 -13.1501 125° Southeast  Level FlightAware Approximate
Mon 05:01:00 AM 58.2559 -12.9317 125° Southeast  Level FlightAware Approximate
Mon 05:02:00 AM 58.1739 -12.7144 126° Southeast  Level FlightAware Approximate
Mon 05:03:00 AM 58.0915 -12.4981 126° Southeast  Level FlightAware Approximate
Mon 05:04:00 AM 58.0094 -12.2820 126° Southeast  Level FlightAware Approximate
Mon 05:05:00 AM 57.9271 -12.0664 126° Southeast  Level FlightAware Approximate
Mon 05:06:00 AM 57.8445 -11.8519 126° Southeast  Level FlightAware Approximate
Mon 05:07:00 AM 57.7616 -11.6384 126° Southeast  Level FlightAware Approximate
Mon 05:08:00 AM 57.6783 -11.4258 126° Southeast  Level FlightAware Approximate
Mon 05:09:00 AM 57.5946 -11.2142 126° Southeast  Level FlightAware Approximate
Mon 05:09:23 AM 57.9200 -9.7050 127° Southeast 496 571 35,700  Level FlightAware ADS-B
Mon 05:09:59 AM 57.8960 -9.5810 110° East 496 571 35,700  Level FlightAware ADS-B
Mon 05:10:00 AM 57.5106 -11.0036 127° Southeast  Level FlightAware Approximate
Mon 05:10:47 AM 57.8640 -9.4150 110° East 496 571 35,700  Level FlightAware ADS-B
Mon 05:11:40 AM 57.8080 -9.1920 115° Southeast 503 579 38,100 2,065 Climbing FlightAware ADS-B
Mon 05:12:20 AM 57.7591 -8.9728 115° Southeast 476 548 38,900 964 Climbing FlightAware UK
Mon 05:12:36 AM 57.7570 -8.9550 115° Southeast 492 566 39,000 111 Climbing FlightAware ADS-B
Mon 05:13:14 AM 57.7170 -8.7830 115° Southeast 493 567 39,000 -136 Level FlightAware ADS-B
Mon 05:13:20 AM 57.7071 -8.7375 115° Southeast 476 548 38,900 -167 Descending FlightAware UK
Mon 05:13:50 AM 57.6807 -8.6193 115° Southeast 474 545 38,900 140 Level FlightAware UK
Mon 05:14:03 AM 57.6710 -8.5790 115° Southeast 492 566 39,000 113 Climbing FlightAware ADS-B
Mon 05:14:43 AM 57.6350 -8.4210 113° Southeast 492 566 39,000 -78 Level FlightAware ADS-B
Mon 05:15:20 AM 57.6000 -8.2656 113° Southeast 474 545 38,900  Descending FlightAware UK
Mon 05:15:23 AM 57.5980 -8.2590 113° Southeast 492 566 39,000 102 Climbing FlightAware ADS-B
Mon 05:16:19 AM 57.5540 -8.0650 113° Southeast 492 566 39,000 -105 Level FlightAware ADS-B
Mon 05:16:20 AM 57.5465 -8.0336 113° Southeast 474 545 38,900  Descending FlightAware UK
Mon 05:16:50 AM 57.5198 -7.9175 113° Southeast 474 545 39,000 103 Climbing FlightAware UK
Mon 05:17:18 AM 57.4990 -7.8310 114° Southeast 493 567 39,000  Level FlightAware ADS-B
Mon 05:17:20 AM 57.4926 -7.8017 114° Southeast 472 543 39,000  Level FlightAware UK
Mon 05:17:50 AM 57.4652 -7.6855 114° Southeast 472 543 39,000  Level FlightAware UK
Mon 05:18:15 AM 57.4470 -7.6080 114° Southeast 492 566 39,000  Level FlightAware ADS-B
Mon 05:18:51 AM 57.4099 -7.4521 114° Southeast 472 543 39,000  Level FlightAware UK
Mon 05:18:58 AM 57.4040 -7.4280 114° Southeast 492 566 39,000  Level FlightAware ADS-B
Mon 05:19:39 AM 57.3670 -7.2710 114° Southeast 492 566 39,000  Level FlightAware ADS-B
Mon 05:20:15 AM 57.3330 -7.1340 115° Southeast 491 565 39,000  Level FlightAware ADS-B
Mon 05:20:57 AM 57.2928 -6.9653 115° Southeast 472 543 39,000  Level FlightAware UK
Mon 05:20:59 AM 57.2920 -6.9630 115° Southeast 492 566 39,000  Level FlightAware ADS-B
Mon 05:21:44 AM 57.2500 -6.7910 114° Southeast 494 568 39,000  Level FlightAware ADS-B
Mon 05:22:24 AM 57.2110 -6.6340 114° Southeast 499 574 39,000  Level FlightAware ADS-B
Mon 05:22:27 AM 57.2077 -6.6192 114° Southeast 472 543 39,000  Level FlightAware UK
Mon 05:23:03 AM 57.1733 -6.4803 114° Southeast 470 541 39,000  Level FlightAware UK
Mon 05:23:09 AM 57.1690 -6.4620 114° Southeast 501 577 39,000  Level FlightAware ADS-B
Mon 05:23:49 AM 57.1290 -6.3040 115° Southeast 502 578 39,000  Level FlightAware ADS-B
Mon 05:24:33 AM 57.0858 -6.1313 115° Southeast 472 543 39,000  Level FlightAware UK
Mon 05:24:34 AM 57.0860 -6.1330 115° Southeast 502 578 39,000  Level FlightAware ADS-B
Mon 05:25:10 AM 57.0550 -6.0100 115° Southeast 501 577 39,000  Level FlightAware ADS-B
Mon 05:25:59 AM 57.0020 -5.8040 115° Southeast 502 578 39,000  Level FlightAware ADS-B
Mon 05:26:39 AM 56.9621 -5.6472 115° Southeast 472 543 39,000  Level FlightAware UK
Mon 05:26:39 AM 56.9630 -5.6530 115° Southeast 499 574 39,000  Level FlightAware ADS-B
Mon 05:27:09 AM 56.9320 -5.5323 115° Southeast 472 543 39,000  Level FlightAware UK
Mon 05:27:19 AM 56.9230 -5.4980 115° Southeast 500 575 39,000  Level FlightAware ADS-B
Mon 05:28:04 AM 56.8790 -5.3270 115° Southeast 498 573 39,000  Level FlightAware ADS-B
Mon 05:28:44 AM 56.8380 -5.1730 116° Southeast 501 577 39,000 -78 Level FlightAware ADS-B
Mon 05:29:21 AM 56.7992 -5.0266 116° Southeast 472 543 38,900  Descending FlightAware UK
Mon 05:29:24 AM 56.7980 -5.0210 116° Southeast 502 578 39,000  Climbing FlightAware ADS-B
Mon 05:29:57 AM 56.7626 -4.8893 116° Southeast 476 548 38,900  Descending FlightAware UK
Mon 05:30:33 AM 56.7259 -4.7524 116° Southeast 472 543 39,000 94 Climbing FlightAware UK
Mon 05:31:01 AM 56.7470 -4.8310 116° Southeast 504 580 39,000  Level FlightAware ADS-B
Mon 05:31:47 AM 56.6510 -4.4770 116° Southeast 501 577 39,000  Level FlightAware ADS-B
Mon 05:32:31 AM 56.6050 -4.3070 116° Southeast 501 577 39,000  Level FlightAware ADS-B
Mon 05:33:11 AM 56.5640 -4.1600 117° Southeast 499 574 39,000  Level FlightAware ADS-B
Mon 05:33:51 AM 56.5230 -4.0100 116° Southeast 500 575 39,000  Level FlightAware ADS-B
Mon 05:34:35 AM 56.4770 -3.8440 117° Southeast 500 575 39,000  Level FlightAware ADS-B
Mon 05:35:21 AM 56.4290 -3.6750 117° Southeast 502 578 39,000  Level FlightAware ADS-B
Mon 05:36:01 AM 56.3870 -3.5260 117° Southeast 501 577 39,000 -83 Level FlightAware ADS-B
Mon 05:36:33 AM 56.3521 -3.4025 117° Southeast 470 541 38,900  Descending FlightAware UK
Mon 05:36:45 AM 56.3420 -3.3600 117° Southeast 503 579 39,000 115 Climbing FlightAware ADS-B
Mon 05:37:25 AM 56.3040 -3.2080 114° Southeast 504 580 39,000  Level FlightAware ADS-B
Mon 05:38:07 AM 56.2630 -3.0460 114° Southeast 506 582 39,000  Level FlightAware ADS-B
Mon 05:38:49 AM 56.2220 -2.8880 115° Southeast 506 582 39,000  Level FlightAware ADS-B
Mon 05:39:33 AM 56.1780 -2.7190 115° Southeast 506 582 39,000  Level FlightAware ADS-B
Mon 05:40:13 AM 56.1390 -2.5720 115° Southeast 507 583 39,000  Level FlightAware ADS-B
Mon 05:40:53 AM 56.0980 -2.4180 115° Southeast 507 583 39,000  Level FlightAware ADS-B
Mon 05:41:29 AM 56.0620 -2.2850 116° Southeast 509 586 39,000  Level FlightAware ADS-B
Mon 05:42:04 AM 56.0252 -2.1474 116° Southeast 472 543 39,000  Level FlightAware UK
Mon 05:42:13 AM 56.0180 -2.1210 116° Southeast 510 587 39,000  Level FlightAware ADS-B
Mon 05:42:53 AM 55.9760 -1.9640 115° Southeast 510 587 39,000  Level FlightAware ADS-B
Mon 05:43:29 AM 55.9400 -1.8310 116° Southeast 511 588 39,000  Level FlightAware ADS-B
Mon 05:44:09 AM 55.9010 -1.6770 114° Southeast 512 589 39,000 -85 Level FlightAware ADS-B
Mon 05:44:40 AM 55.8728 -1.5500 114° Southeast 472 543 38,900  Descending FlightAware UK
Mon 05:44:53 AM 55.8640 -1.5070 114° Southeast 513 590 39,000 113 Climbing FlightAware ADS-B
Mon 05:45:33 AM 55.8290 -1.3500 112° Southeast 513 590 39,000  Level FlightAware ADS-B
Mon 05:46:15 AM 55.7920 -1.1800 111° Southeast 515 593 39,000  Level FlightAware ADS-B
Mon 05:46:57 AM 55.7560 -1.0170 111° Southeast 514 592 39,000  Level FlightAware ADS-B
Mon 05:46:59 AM 55.7536 -1.0071 111° Southeast 472 543 39,000  Level FlightAware UK
Mon 05:47:29 AM 55.7274 -0.8895 111° Southeast 470 541 39,000  Level FlightAware UK
Mon 05:47:41 AM 55.7180 -0.8480 111° Southeast 514 592 39,000  Level FlightAware ADS-B
Mon 05:48:15 AM 55.6890 -0.7180 112° Southeast 515 593 39,000  Level FlightAware ADS-B
Mon 05:48:57 AM 55.6500 -0.5470 112° Southeast 517 595 39,000  Level FlightAware ADS-B
Mon 05:49:29 AM 55.6205 -0.4196 112° Southeast 472 543 39,000  Level FlightAware UK
Mon 05:49:37 AM 55.6150 -0.3960 112° Southeast 517 595 39,000  Level FlightAware ADS-B
Mon 05:50:15 AM 55.5800 -0.2440 112° Southeast 518 596 39,000  Level FlightAware ADS-B
Mon 05:50:54 AM 55.5442 -0.0900 112° Southeast 470 541 39,000  Level FlightAware UK
Mon 05:50:55 AM 55.5430 -0.0850 112° Southeast 518 596 39,000  Level FlightAware ADS-B
Mon 05:51:37 AM 55.5050 0.0780 112° Southeast 519 597 39,000  Level FlightAware ADS-B
Mon 05:52:12 AM 55.4729 0.2142 112° Southeast 472 543 39,000  Level FlightAware UK
Mon 05:52:17 AM 55.4680 0.2340 112° Southeast 518 596 39,000  Level FlightAware ADS-B
Mon 05:52:54 AM 55.4341 0.3785 112° Southeast 472 543 39,000  Level FlightAware UK
Mon 05:52:55 AM 55.4340 0.3800 112° Southeast 518 596 39,000  Level FlightAware ADS-B
Mon 05:53:39 AM 55.3920 0.5520 113° Southeast 518 596 39,000  Level FlightAware ADS-B
Mon 05:54:15 AM 55.3600 0.6860 113° Southeast 518 596 39,000  Level FlightAware ADS-B
Mon 05:55:00 AM 55.3162 0.8668 113° Southeast 470 541 39,000  Level FlightAware UK
Mon 05:55:02 AM 55.3150 0.8740 113° Southeast 519 597 39,000  Level FlightAware ADS-B
Mon 05:55:43 AM 55.2780 1.0240 113° Southeast 517 595 39,000  Level FlightAware ADS-B
Mon 05:56:28 AM 55.2350 1.1980 113° Southeast 520 598 39,000  Level FlightAware ADS-B
Mon 05:57:03 AM 55.2020 1.3280 114° Southeast 522 601 39,000  Level FlightAware ADS-B
Mon 05:57:47 AM 55.1570 1.5090 113° Southeast 523 602 39,000  Level FlightAware ADS-B
Mon 05:58:33 AM 55.1130 1.6850 114° Southeast 523 602 39,000  Level FlightAware ADS-B
Mon 05:59:11 AM 55.0770 1.8280 114° Southeast 522 601 39,000  Level FlightAware ADS-B
Mon 05:59:54 AM 55.0360 1.9890 114° Southeast 523 602 39,000  Level FlightAware ADS-B
Mon 06:00:35 AM 54.9940 2.1490 115° Southeast 525 604 39,000  Level FlightAware ADS-B
Mon 06:01:16 AM 54.9540 2.3060 114° Southeast 524 603 39,000  Level FlightAware ADS-B
Mon 06:02:01 AM 54.9065 2.4870 114° Southeast 470 541 39,000  Level FlightAware UK
Mon 06:02:01 AM 54.9080 2.4790 114° Southeast 524 603 39,000  Level FlightAware ADS-B
Mon 06:02:31 AM 54.8762 2.6016 114° Southeast 470 541 39,000  Level FlightAware UK
Mon 06:02:52 AM 54.8580 2.6710 114° Southeast 525 604 39,000  Level FlightAware ADS-B
Mon 06:03:25 AM 54.8215 2.8084 114° Southeast 470 541 39,000  Level FlightAware UK
Mon 06:03:43 AM 54.8080 2.8620 114° Southeast 526 605 39,000  Level FlightAware ADS-B
Mon 06:04:18 AM 54.7680 3.0030 116° Southeast 528 608 39,000  Level FlightAware ADS-B
Mon 06:05:02 AM 54.7130 3.1140 131° Southeast 524 603 39,000  Level FlightAware ADS-B
Mon 06:05:37 AM 54.6144 3.1911 131° Southeast 470 541 39,000  Level FlightAware UK
Mon 06:05:59 AM 54.5690 3.2060 131° Southeast 508 585 39,000  Level FlightAware ADS-B
Mon 06:06:37 AM 54.4810 3.2330 170° South 508 585 39,000  Level FlightAware ADS-B
Mon 06:07:24 AM 54.3760 3.2650 170° South 508 585 39,000  Level FlightAware ADS-B
Mon 06:08:05 AM 54.2770 3.3130 164° South 517 595 39,000  Level FlightAware ADS-B
Mon 06:08:44 AM 54.1990 3.3990 147° Southeast 524 603 39,000  Level FlightAware ADS-B
Mon 06:09:31 AM 54.1120 3.5180 141° Southeast 523 602 39,000  Level FlightAware ADS-B
Mon 06:10:07 AM 54.0440 3.6110 141° Southeast 522 601 39,000  Level FlightAware ADS-B (KAPA)
Mon 06:10:55 AM 53.9700 3.7110 142° Southeast 521 600 39,000 -71 Level FlightAware ADS-B
Mon 06:11:31 AM 53.8808 3.8298 142° Southeast 470 541 38,900  Descending FlightAware UK
Mon 06:11:37 AM 53.8710 3.8420 142° Southeast 522 601 39,000 143 Climbing FlightAware ADS-B (KAPA)
Mon 06:12:13 AM 53.8013 3.9351 142° Southeast 472 543 39,000  Level FlightAware UK
Mon 06:12:30 AM 53.7820 3.9610 142° Southeast 522 601 39,000  Level FlightAware ADS-B
Mon 06:13:14 AM 53.6870 4.0850 142° Southeast 521 600 39,000  Level FlightAware ADS-B
Mon 06:13:56 AM 53.6080 4.1900 142° Southeast 520 598 39,000  Level FlightAware ADS-B
Mon 06:14:37 AM 53.5340 4.2860 142° Southeast 521 600 39,000  Level FlightAware ADS-B
Mon 06:15:19 AM 53.4478 4.3970 142° Southeast 470 541 39,000  Level FlightAware UK
Mon 06:16:05 AM 53.3770 4.4900 142° Southeast 521 600 39,000  Level FlightAware ADS-B (KAPA)
Mon 06:16:45 AM 53.2870 4.6050 143° Southeast 520 598 39,000  Level FlightAware ADS-B (KAPA)
Mon 06:17:28 AM 53.2050 4.7100 142° Southeast 520 598 39,000  Level FlightAware ADS-B (KAPA)
Mon 06:18:02 AM 53.1392 4.7933 142° Southeast 470 541 39,000  Level FlightAware UK
Mon 06:18:08 AM 53.1300 4.8060 142° Southeast 520 598 39,000  Level FlightAware ADS-B (KAPA)
Mon 06:18:52 AM 53.0440 4.9140 143° Southeast 521 600 39,000  Level FlightAware ADS-B (KAPA)
Mon 06:19:30 AM 52.9700 5.0070 143° Southeast 521 600 39,000  Level FlightAware ADS-B (KAPA)
Mon 06:20:16 AM 52.8860 5.1130 143° Southeast 521 600 39,000  Level FlightAware ADS-B (KAPA)
Mon 06:20:56 AM 52.8090 5.2100 143° Southeast 520 598 39,000  Level FlightAware ADS-B (KAPA)
Mon 06:21:26 AM 52.7494 5.2846 143° Southeast 472 543 39,000  Level FlightAware UK
Mon 06:21:40 AM 52.7270 5.3110 143° Southeast 521 600 39,000  Level FlightAware ADS-B (KAPA)
Mon 06:22:16 AM 52.6560 5.3990 143° Southeast 521 600 39,000  Level FlightAware ADS-B (KAPA)
Mon 06:23:02 AM 52.5660 5.5110 143° Southeast 522 601 39,000  Level FlightAware ADS-B (KAPA)
Mon 06:23:45 AM 52.4860 5.6090 143° Southeast 521 600 39,000  Level FlightAware ADS-B (KAPA)
Mon 06:24:27 AM 52.4020 5.7110 143° Southeast 522 601 39,000  Level FlightAware ADS-B (KAPA)
Mon 06:25:09 AM 52.3210 5.8090 144° Southeast 522 601 39,000  Level FlightAware ADS-B
Mon 06:25:52 AM 52.2360 5.9120 143° Southeast 521 600 39,000  Level FlightAware ADS-B
Mon 06:26:28 AM 52.1670 5.9950 144° Southeast 522 601 39,000  Level FlightAware ADS-B
Mon 06:27:13 AM 52.0810 6.0980 144° Southeast 522 601 39,000  Level FlightAware ADS-B
Mon 06:27:56 AM 51.9980 6.1970 144° Southeast 522 601 39,000  Level FlightAware ADS-B
Mon 06:28:40 AM 51.9110 6.3010 144° Southeast 522 601 39,000  Level FlightAware ADS-B
Mon 06:29:16 AM 51.8430 6.3810 144° Southeast 522 601 39,000  Level FlightAware ADS-B
Mon 06:30:00 AM 51.7560 6.4830 144° Southeast 522 601 39,000  Level FlightAware ADS-B
Mon 06:30:44 AM 51.6700 6.5840 144° Southeast 523 602 39,000  Level FlightAware ADS-B
Mon 06:31:28 AM 51.5830 6.6850 144° Southeast 522 601 39,000  Level FlightAware ADS-B
Mon 06:32:10 AM 51.4970 6.7690 149° Southeast 522 601 39,000  Level FlightAware ADS-B
Mon 06:32:51 AM 51.4090 6.8310 156° South 521 600 39,000  Level FlightAware ADS-B
Mon 06:33:31 AM 51.3190 6.8880 158° South 521 600 39,000  Level FlightAware ADS-B
Mon 06:34:15 AM 51.2190 6.9510 158° South 521 600 39,000  Level FlightAware ADS-B
Mon 06:34:59 AM 51.1200 7.0140 158° South 521 600 39,000  Level FlightAware ADS-B
Mon 06:35:38 AM 51.0340 7.0690 158° South 521 600 39,000  Level FlightAware ADS-B
Mon 06:36:19 AM 50.9410 7.1280 158° South 522 601 39,000  Level FlightAware ADS-B
Mon 06:37:03 AM 50.8450 7.1890 158° South 522 601 39,000  Level FlightAware ADS-B
Mon 06:37:45 AM 50.7530 7.2470 158° South 522 601 39,000  Level FlightAware ADS-B
Mon 06:38:27 AM 50.6560 7.3080 158° South 521 600 39,000  Level FlightAware ADS-B
Mon 06:39:11 AM 50.5570 7.3690 159° South 521 600 39,000  Level FlightAware ADS-B
Mon 06:39:51 AM 50.4660 7.4260 158° South 522 601 39,000  Level FlightAware ADS-B
Mon 06:40:31 AM 50.3770 7.4810 158° South 522 601 39,000  Level FlightAware ADS-B
Mon 06:41:13 AM 50.2830 7.5390 158° South 522 601 39,000  Level FlightAware ADS-B
Mon 06:41:57 AM 50.1830 7.6000 159° South 522 601 39,000  Level FlightAware ADS-B
Mon 06:42:39 AM 50.0900 7.6570 159° South 522 601 39,000  Level FlightAware ADS-B
Mon 06:43:19 AM 50.0010 7.7110 159° South 521 600 39,000  Level FlightAware ADS-B
Mon 06:44:03 AM 49.9040 7.7690 159° South 521 600 39,000  Level FlightAware ADS-B
Mon 06:44:47 AM 49.8020 7.8310 159° South 521 600 39,000  Level FlightAware ADS-B
Mon 06:45:27 AM 49.7130 7.8840 159° South 522 601 39,000  Level FlightAware ADS-B
Mon 06:46:10 AM 49.6170 7.9420 159° South 520 598 39,000  Level FlightAware ADS-B
Mon 06:46:51 AM 49.5250 7.9960 159° South 519 597 39,000  Level FlightAware ADS-B
Mon 06:47:35 AM 49.4280 8.0530 159° South 518 596 39,000  Level FlightAware ADS-B
Mon 06:48:15 AM 49.3390 8.1060 159° South 519 597 39,000  Level FlightAware ADS-B
Mon 06:48:59 AM 49.2390 8.1650 159° South 518 596 39,000  Level FlightAware ADS-B
Mon 06:49:33 AM 49.1610 8.2110 159° South 518 596 39,000  Level FlightAware ADS-B
Mon 06:50:19 AM 49.0660 8.2660 159° South 518 596 39,000  Level FlightAware ADS-B
Mon 06:50:54 AM 48.9810 8.3060 163° South 510 587 39,000  Level FlightAware ADS-B
Mon 06:51:39 AM 48.8820 8.3230 174° South 517 595 39,000  Level FlightAware ADS-B
Mon 06:52:16 AM 48.8000 8.3310 176° South 516 594 39,000  Level FlightAware ADS-B
Mon 06:52:54 AM 48.6970 8.3400 177° South 518 596 39,000  Level FlightAware ADS-B
Mon 06:53:54 AM 48.5540 8.3540 176° South 517 595 39,000  Level FlightAware ADS-B
Mon 06:54:34 AM 48.4630 8.3620 177° South 516 594 39,000  Level FlightAware ADS-B
Mon 06:55:30 AM 48.3270 8.3780 176° South 513 590 39,000  Level FlightAware ADS-B
Mon 06:56:09 AM 48.2330 8.3920 174° South 504 580 39,000  Level FlightAware ADS-B
Mon 06:56:55 AM 48.1280 8.4060 175° South 504 580 39,000  Level FlightAware ADS-B
Mon 06:57:30 AM 48.0420 8.4170 175° South 503 579 39,000  Level FlightAware ADS-B
Mon 06:58:10 AM 47.9500 8.4300 175° South 502 578 39,000  Level FlightAware ADS-B
Mon 06:58:49 AM 47.8570 8.4420 175° South 502 578 39,000  Level FlightAware ADS-B
Mon 06:59:35 AM 47.7530 8.4550 175° South 501 577 39,000  Level FlightAware ADS-B
Mon 07:00:32 AM 47.6790 8.4650 175° South 509 586 39,000  Level FlightAware ADS-B
Mon 07:01:20 AM 47.5010 8.4880 175° South 507 583 39,000  Level FlightAware ADS-B
Mon 07:01:49 AM 47.4340 8.4970 175° South 507 583 39,000  Level FlightAware ADS-B
Mon 07:02:27 AM 47.3440 8.5090 175° South 507 583 39,000  Level FlightAware ADS-B
Mon 07:03:13 AM 47.2370 8.5220 175° South 505 581 39,000  Level FlightAware ADS-B
Mon 07:03:52 AM 47.1470 8.5340 175° South 505 581 39,000  Level FlightAware ADS-B
Mon 07:04:37 AM 47.0430 8.5470 175° South 504 580 39,000  Level FlightAware ADS-B
Mon 07:05:17 AM 46.9510 8.5590 175° South 503 579 39,000  Level FlightAware ADS-B
Mon 07:06:01 AM 46.8480 8.5720 175° South 502 578 39,000  Level FlightAware ADS-B
Mon 07:06:42 AM 46.7550 8.5840 175° South 501 577 39,000  Level FlightAware ADS-B
Mon 07:07:23 AM 46.6610 8.5950 175° South 500 575 39,000  Level FlightAware ADS-B
Mon 07:08:06 AM 46.5600 8.6100 174° South 499 574 39,000  Level FlightAware ADS-B
Mon 07:08:47 AM 46.4730 8.6460 164° South 493 567 39,000  Level FlightAware ADS-B
Mon 07:09:31 AM 46.3820 8.7150 152° Southeast 490 564 39,000  Level FlightAware ADS-B
Mon 07:10:10 AM 46.3040 8.7760 152° Southeast 489 563 39,000  Level FlightAware ADS-B
Mon 07:10:54 AM 46.2160 8.8440 152° Southeast 489 563 39,000  Level FlightAware ADS-B
Mon 07:11:36 AM 46.1580 8.8880 152° Southeast 490 564 39,000  Level FlightAware ADS-B
Mon 07:12:18 AM 46.0480 8.9720 152° Southeast 489 563 39,000  Level FlightAware ADS-B
Mon 07:13:02 AM 45.9620 9.0380 152° Southeast 489 563 39,000  Level FlightAware ADS-B
Mon 07:13:41 AM 45.8830 9.0970 153° Southeast 488 562 39,000  Level FlightAware ADS-B
Mon 07:14:23 AM 45.7990 9.1600 152° Southeast 488 562 39,000  Level FlightAware ADS-B
Mon 07:15:05 AM 45.7180 9.2210 152° Southeast 488 562 39,000  Level FlightAware ADS-B
Mon 07:15:47 AM 45.6330 9.2860 152° Southeast 488 562 39,000  Level FlightAware ADS-B
Mon 07:16:28 AM 45.5540 9.3440 153° Southeast 488 562 39,000  Level FlightAware ADS-B
Mon 07:17:10 AM 45.4660 9.4100 152° Southeast 488 562 39,000  Level FlightAware ADS-B
Mon 07:17:52 AM 45.3810 9.4730 152° Southeast 487 560 39,000  Level FlightAware ADS-B
Mon 07:18:35 AM 45.2970 9.5350 153° Southeast 487 560 39,000  Level FlightAware ADS-B
Mon 07:19:25 AM 45.2040 9.6030 153° Southeast 487 560 39,000  Level FlightAware ADS-B
Mon 07:20:06 AM 45.1160 9.6680 152° Southeast 486 559 39,000  Level FlightAware ADS-B
Mon 07:20:46 AM 45.0390 9.7250 152° Southeast 486 559 39,000  Level FlightAware ADS-B
Mon 07:21:31 AM 44.9480 9.7910 153° Southeast 486 559 39,000  Level FlightAware ADS-B
Mon 07:22:11 AM 44.8720 9.8460 153° Southeast 485 558 39,000  Level FlightAware ADS-B
Mon 07:22:51 AM 44.7880 9.9060 153° Southeast 485 558 39,000  Level FlightAware ADS-B
Mon 07:23:26 AM 44.7210 9.9550 153° Southeast 484 557 39,000  Level FlightAware ADS-B
Mon 07:24:10 AM 44.6290 10.0210 153° Southeast 476 548 39,000  Level FlightAware ADS-B
Mon 07:24:51 AM 44.5490 10.0780 153° Southeast 484 557 39,000  Level FlightAware ADS-B
Mon 07:25:25 AM 44.4780 10.1220 156° South 485 558 39,000  Level FlightAware ADS-B
Mon 07:26:10 AM 44.3850 10.1730 159° South 479 551 39,000  Level FlightAware ADS-B
Mon 07:26:51 AM 44.3000 10.2180 159° South 479 551 39,000  Level FlightAware ADS-B
Mon 07:27:26 AM 44.2300 10.2540 160° South 477 549 39,000  Level FlightAware ADS-B
Mon 07:28:10 AM 44.1350 10.3030 160° South 482 555 39,000  Level FlightAware ADS-B
Mon 07:28:46 AM 44.0580 10.3430 160° South 480 552 39,000  Level FlightAware ADS-B
Mon 07:29:30 AM 43.9840 10.3820 159° South 480 552 39,000  Level FlightAware ADS-B
Mon 07:30:17 AM 43.8660 10.4420 160° South 479 551 39,000  Level FlightAware ADS-B
Mon 07:31:12 AM 43.7550 10.4990 160° South 478 550 39,000 -62 Level FlightAware ADS-B
Mon 07:31:54 AM 43.6670 10.5440 160° South 476 548 38,900 -684 Descending FlightAware ADS-B
Mon 07:32:31 AM 43.5890 10.5840 160° South 478 550 38,100 -1,440 Descending FlightAware ADS-B
Mon 07:33:09 AM 43.5120 10.6240 159° South 483 556 37,100 -2,222 Descending FlightAware ADS-B
Mon 07:33:52 AM 43.4250 10.6780 156° South 488 562 35,100 -3,068 Descending FlightAware ADS-B
Mon 07:34:37 AM 43.3400 10.7630 144° Southeast 489 563 32,600 -3,077 Descending FlightAware ADS-B
Mon 07:35:10 AM 43.2830 10.8250 142° Southeast 484 557 31,100 -2,415 Descending FlightAware ADS-B
Mon 07:35:59 AM 43.1980 10.9170 142° Southeast 468 539 29,300 -2,387 Descending FlightAware ADS-B
Mon 07:36:43 AM 43.1250 10.9960 142° Southeast 465 535 27,400 -2,429 Descending FlightAware ADS-B
Mon 07:37:23 AM 43.0570 11.0690 142° Southeast 455 524 25,900 -2,214 Descending FlightAware ADS-B
Mon 07:38:07 AM 42.9840 11.1460 142° Southeast 446 513 24,300 -2,127 Descending FlightAware ADS-B
Mon 07:38:42 AM 42.9270 11.2070 142° Southeast 437 503 23,100 -1,902 Descending FlightAware ADS-B
Mon 07:39:29 AM 42.8510 11.2730 148° Southeast 422 486 21,700 -1,931 Descending FlightAware ADS-B
Mon 07:40:09 AM 42.7840 11.3240 151° Southeast 417 480 20,300 -1,875 Descending FlightAware ADS-B
Mon 07:40:49 AM 42.7150 11.3740 152° Southeast 409 471 19,200 -1,674 Descending FlightAware ADS-B
Mon 07:41:35 AM 42.6370 11.4290 153° Southeast 401 461 17,900 -1,841 Descending FlightAware ADS-B
Mon 07:42:17 AM 42.5710 11.4770 152° Southeast 396 456 16,500 -1,880 Descending FlightAware ADS-B
Mon 07:42:58 AM 42.5040 11.5260 152° Southeast 381 438 15,300 -1,341 Descending FlightAware ADS-B
Mon 07:43:42 AM 42.4380 11.5730 152° Southeast 354 407 14,600 -825 Descending FlightAware ADS-B
Mon 07:44:18 AM 42.3870 11.6090 152° Southeast 334 384 14,200 -632 Descending FlightAware ADS-B
Mon 07:44:58 AM 42.3350 11.6470 152° Southeast 315 362 13,800 -1,050 Descending FlightAware ADS-B
Mon 07:45:38 AM 42.2850 11.6830 152° Southeast 299 344 12,800 -1,950 Descending FlightAware ADS-B
Mon 07:46:18 AM 42.2350 11.7190 152° Southeast 306 352 11,200 -1,650 Descending FlightAware ADS-B
Mon 07:46:58 AM 42.1990 11.7720 133° Southeast 286 329 10,600 -1,385 Descending FlightAware ADS-B
Mon 07:47:23 AM 42.1830 11.8090 120° Southeast 284 327 9,700 -1,889 Descending FlightAware ADS-B
Mon 07:47:52 AM 42.1650 11.8530 119° Southeast 266 306 8,900 -1,867 Descending FlightAware ADS-B
Mon 07:48:08 AM 42.1540 11.8740 125° Southeast 263 303 8,300 -2,182 Descending FlightAware ADS-B
Mon 07:48:36 AM 42.1340 11.9110 126° Southeast 252 290 7,300 -2,036 Descending FlightAware ADS-B
Mon 07:49:04 AM 42.1170 11.9480 122° Southeast 243 280 6,400 -2,143 Descending FlightAware ADS-B
Mon 07:49:32 AM 42.1020 11.9860 118° Southeast 247 284 5,300 -1,962 Descending FlightAware ADS-B
Mon 07:49:56 AM 42.0890 12.0190 118° Southeast 245 282 4,700 -1,222 Descending FlightAware ADS-B
Mon 07:50:26 AM 42.0740 12.0600 116° Southeast 243 280 4,200 -857 Descending FlightAware ADS-B
Mon 07:50:52 AM 42.0590 12.0920 122° Southeast 239 275 3,900 -346 Descending FlightAware ADS-B
Mon 07:51:18 AM 42.0400 12.1200 132° Southeast 224 258 3,900  Level FlightAware ADS-B
Mon 07:51:30 AM 42.0310 12.1310 138° Southeast 216 249 3,900  Level FlightAware ADS-B
Mon 07:51:46 AM 42.0170 12.1410 152° Southeast 206 237 3,900 -682 Level FlightAware ADS-B
Mon 07:52:14 AM 41.9910 12.1520 163° South 208 239 3,400 -1,071 Descending FlightAware ADS-B
Mon 07:52:42 AM 41.9660 12.1630 162° South 209 241 2,900 -1,091 Descending FlightAware ADS-B
Mon 07:53:09 AM 41.9420 12.1730 163° South 197 227 2,400 -1,021 Descending FlightAware ADS-B
Mon 07:53:29 AM 41.9250 12.1800 163° South 184 212 2,100 -894 Descending FlightAware ADS-B
Mon 07:53:56 AM 41.9040 12.1890 162° South 168 193 1,700 -842 Descending FlightAware ADS-B
Mon 07:54:26 AM 41.8840 12.1980 161° South 143 165 1,300 -857 Descending FlightAware ADS-B
Mon 07:54:38 AM 41.8760 12.2010 164° South 144 166 1,100 -750 Descending FlightAware ADS-B
Mon 07:55:06 AM 41.8580 12.2080 164° South 143 165 800 -750 Descending FlightAware ADS-B
Mon 07:55:18 AM 41.8510 12.2120 157° South 139 160 600 -833 Descending FlightAware ADS-B
Mon 07:55:42 AM 41.8360 12.2180 163° South 142 163 300 -750 Descending FlightAware ADS-B
Mon 07:56:10 AM 41.8180 12.2250 164° South 144 166 -643 Descending FlightAware ADS-B
Mon 07:56:38 AM 41.8020 12.2320 162° South 94 108  Level FlightAware ADS-B
Mon 07:57:06 AM 41.7960 12.2350 160° South 27 31  Level FlightAware ADS-B
Mon 07:57:19 AM 41.7950 12.2360 143° Southeast 23 26  Level FlightAware ADS-B
Mon 07:57:43 AM 41.7930 12.2380 143° Southeast 30 35  Level FlightAware ADS-B
Mon 07:58:03 AM 41.7940 12.2390 37° Northeast 31 36  Level FlightAware ADS-B
Mon 07:58:17 AM 41.7950 12.2380 323° Northwest 15 17  Level FlightAware ADS-B
Mon 07:58:53 AM 41.7970 12.2380 360° North 26 30  Level FlightAware ADS-B
Mon 07:59:26 AM 41.7970 12.2400 90° East 27 31  Level FlightAware ADS-B
Mon 07:59:40 AM 41.7980 12.2410 37° Northeast 30 35  Level FlightAware ADS-B
Mon 08:00:16 AM 41.7980 12.2430 90° East 20 23  Level FlightAware ADS-B
Mon 08:03:00 AM 41.8000 12.2333 143° Southeast  Level FlightAware Approximate
Mon 08:04:00 AM 41.8045 12.2508 143° Southeast  Level Estimated
Mon 08:05:00 AM 41.8045 12.2508 143° Southeast  Level Estimated
Mon 08:06:00 AM 41.8045 12.2508 143° Southeast  Level Estimated
Mon 08:07:00 AM 41.8045 12.2508 143° Southeast  Level Estimated
Mon 08:08:00 AM 41.8045 12.2508 143° Southeast  Level Estimated
Mon 08:09:00 AM 41.8045 12.2508 143° Southeast  Level Estimated
Mon 08:10:00 AM 41.8045 12.2508 143° Southeast  Level Estimated
Mon 08:11:00 AM 41.8045 12.2508 143° Southeast  Level Estimated
Mon 08:12:00 AM 41.8045 12.2508 143° Southeast  Level Estimated
Mon 08:13:00 AM 41.8045 12.2508 143° Southeast  Level Estimated
Mon 08:14:00 AM 41.8045 12.2508 143° Southeast  Level Estimated
Mon 08:15:00 AM 41.8045 12.2508 143° Southeast  Level Estimated
Mon 08:16:00 AM 41.8045 12.2508 143° Southeast  Level Estimated
Mon 08:17:00 AM 41.8045 12.2508 143° Southeast  Level Estimated
Mon 08:18:00 AM 41.8045 12.2508 143° Southeast  Level Estimated

Login

Don't have an account? Register now (free) for customized features, flight alerts, and more!